sensor_id;sensor_type;location;lat;lon;timestamp;pressure;altitude;pressure_sealevel;temperature;humidity
8641;BME280;4358;42.100;25.222;2023-04-25T00:00:47;99395.38;;;13.88;100.00
8641;BME280;4358;42.100;25.222;2023-04-25T00:03:14;99382.75;;;13.90;100.00
8641;BME280;4358;42.100;25.222;2023-04-25T00:05:42;99380.84;;;14.02;100.00
8641;BME280;4358;42.100;25.222;2023-04-25T00:08:09;99378.88;;;14.14;100.00
8641;BME280;4358;42.100;25.222;2023-04-25T00:10:36;99367.94;;;14.26;100.00
8641;BME280;4358;42.100;25.222;2023-04-25T00:13:03;99358.56;;;14.41;100.00
8641;BME280;4358;42.100;25.222;2023-04-25T00:15:30;99362.63;;;14.55;100.00
8641;BME280;4358;42.100;25.222;2023-04-25T00:17:57;99353.50;;;14.58;100.00
8641;BME280;4358;42.100;25.222;2023-04-25T00:20:24;99347.19;;;14.59;100.00
8641;BME280;4358;42.100;25.222;2023-04-25T00:22:52;99339.31;;;14.67;100.00
8641;BME280;4358;42.100;25.222;2023-04-25T00:25:19;99339.16;;;14.78;100.00
8641;BME280;4358;42.100;25.222;2023-04-25T00:27:46;99334.53;;;14.80;100.00
8641;BME280;4358;42.100;25.222;2023-04-25T00:30:13;99327.06;;;14.74;100.00
8641;BME280;4358;42.100;25.222;2023-04-25T00:32:40;99331.13;;;14.78;100.00
8641;BME280;4358;42.100;25.222;2023-04-25T00:35:08;99322.84;;;14.71;100.00
8641;BME280;4358;42.100;25.222;2023-04-25T00:37:35;99322.16;;;14.79;100.00
8641;BME280;4358;42.100;25.222;2023-04-25T00:40:05;99315.81;;;14.80;100.00
8641;BME280;4358;42.100;25.222;2023-04-25T00:42:33;99311.72;;;14.76;100.00
8641;BME280;4358;42.100;25.222;2023-04-25T00:45:01;99311.16;;;14.82;100.00
8641;BME280;4358;42.100;25.222;2023-04-25T00:47:30;99308.91;;;14.87;100.00
8641;BME280;4358;42.100;25.222;2023-04-25T00:49:58;99301.91;;;14.86;100.00
8641;BME280;4358;42.100;25.222;2023-04-25T00:52:25;99297.38;;;14.87;100.00
8641;BME280;4358;42.100;25.222;2023-04-25T00:54:52;99294.00;;;14.94;100.00
8641;BME280;4358;42.100;25.222;2023-04-25T00:57:20;99300.44;;;15.01;100.00
8641;BME280;4358;42.100;25.222;2023-04-25T00:59:47;99300.44;;;15.01;100.00
8641;BME280;4358;42.100;25.222;2023-04-25T01:02:14;99295.09;;;15.01;100.00
8641;BME280;4358;42.100;25.222;2023-04-25T01:04:41;99293.41;;;15.00;100.00
8641;BME280;4358;42.100;25.222;2023-04-25T01:07:09;99286.50;;;14.98;100.00
8641;BME280;4358;42.100;25.222;2023-04-25T01:09:36;99281.59;;;14.93;100.00
8641;BME280;4358;42.100;25.222;2023-04-25T01:12:03;99290.59;;;14.92;100.00
8641;BME280;4358;42.100;25.222;2023-04-25T01:14:32;99293.00;;;14.95;100.00
8641;BME280;4358;42.100;25.222;2023-04-25T01:16:59;99294.81;;;14.95;100.00
8641;BME280;4358;42.100;25.222;2023-04-25T01:19:26;99291.44;;;14.93;100.00
8641;BME280;4358;42.100;25.222;2023-04-25T01:21:54;99292.28;;;14.93;100.00
8641;BME280;4358;42.100;25.222;2023-04-25T01:24:21;99285.25;;;14.92;100.00
8641;BME280;4358;42.100;25.222;2023-04-25T01:26:49;99273.50;;;14.85;100.00
8641;BME280;4358;42.100;25.222;2023-04-25T01:29:16;99282.75;;;14.91;100.00
8641;BME280;4358;42.100;25.222;2023-04-25T01:31:44;99276.59;;;14.71;100.00
8641;BME280;4358;42.100;25.222;2023-04-25T01:34:11;99274.91;;;14.79;100.00
8641;BME280;4358;42.100;25.222;2023-04-25T01:36:38;99264.75;;;14.83;100.00
8641;BME280;4358;42.100;25.222;2023-04-25T01:39:06;99254.97;;;14.74;100.00
8641;BME280;4358;42.100;25.222;2023-04-25T01:41:34;99256.25;;;14.70;100.00
8641;BME280;4358;42.100;25.222;2023-04-25T01:44:02;99253.28;;;14.73;100.00
8641;BME280;4358;42.100;25.222;2023-04-25T01:46:30;99245.16;;;14.65;100.00
8641;BME280;4358;42.100;25.222;2023-04-25T01:48:57;99239.22;;;14.61;100.00
8641;BME280;4358;42.100;25.222;2023-04-25T01:51:24;99223.78;;;14.55;100.00
8641;BME280;4358;42.100;25.222;2023-04-25T01:53:51;99235.72;;;14.61;100.00
8641;BME280;4358;42.100;25.222;2023-04-25T01:56:19;99228.31;;;14.45;100.00
8641;BME280;4358;42.100;25.222;2023-04-25T01:58:46;99236.03;;;14.48;100.00
8641;BME280;4358;42.100;25.222;2023-04-25T02:01:13;99235.91;;;14.50;100.00
8641;BME280;4358;42.100;25.222;2023-04-25T02:03:40;99242.34;;;14.57;100.00
8641;BME280;4358;42.100;25.222;2023-04-25T02:06:07;99251.06;;;14.59;100.00
8641;BME280;4358;42.100;25.222;2023-04-25T02:08:34;99249.91;;;14.61;100.00
8641;BME280;4358;42.100;25.222;2023-04-25T02:11:02;99243.06;;;14.59;100.00
8641;BME280;4358;42.100;25.222;2023-04-25T02:13:31;99255.56;;;14.58;100.00
8641;BME280;4358;42.100;25.222;2023-04-25T02:15:57;99247.69;;;14.57;100.00
8641;BME280;4358;42.100;25.222;2023-04-25T02:18:24;99254.41;;;14.61;100.00
8641;BME280;4358;42.100;25.222;2023-04-25T02:20:51;99245.69;;;14.68;100.00
8641;BME280;4358;42.100;25.222;2023-04-25T02:23:18;99256.66;;;14.75;100.00
8641;BME280;4358;42.100;25.222;2023-04-25T02:25:45;99251.00;;;14.78;100.00
8641;BME280;4358;42.100;25.222;2023-04-25T02:28:12;99247.81;;;14.65;100.00
8641;BME280;4358;42.100;25.222;2023-04-25T02:30:40;99242.03;;;14.69;100.00
8641;BME280;4358;42.100;25.222;2023-04-25T02:33:07;99232.06;;;14.62;100.00
8641;BME280;4358;42.100;25.222;2023-04-25T02:35:34;99230.56;;;14.50;100.00
8641;BME280;4358;42.100;25.222;2023-04-25T02:38:01;99236.72;;;14.50;100.00
8641;BME280;4358;42.100;25.222;2023-04-25T02:40:27;99231.13;;;14.53;100.00
8641;BME280;4358;42.100;25.222;2023-04-25T02:42:54;99237.31;;;14.44;100.00
8641;BME280;4358;42.100;25.222;2023-04-25T02:45:21;99239.13;;;14.53;100.00
8641;BME280;4358;42.100;25.222;2023-04-25T02:47:49;99247.28;;;14.52;100.00
8641;BME280;4358;42.100;25.222;2023-04-25T02:50:16;99259.34;;;14.56;100.00
8641;BME280;4358;42.100;25.222;2023-04-25T02:52:43;99250.25;;;14.49;100.00
8641;BME280;4358;42.100;25.222;2023-04-25T02:55:12;99254.56;;;14.30;100.00
8641;BME280;4358;42.100;25.222;2023-04-25T02:57:39;99251.91;;;14.11;100.00
8641;BME280;4358;42.100;25.222;2023-04-25T03:00:07;99254.72;;;14.00;100.00
8641;BME280;4358;42.100;25.222;2023-04-25T03:02:34;99261.59;;;13.93;100.00
8641;BME280;4358;42.100;25.222;2023-04-25T03:05:02;99261.59;;;13.93;100.00
8641;BME280;4358;42.100;25.222;2023-04-25T03:07:30;99254.16;;;13.87;100.00
8641;BME280;4358;42.100;25.222;2023-04-25T03:09:56;99244.31;;;13.78;100.00
8641;BME280;4358;42.100;25.222;2023-04-25T03:12:23;99248.22;;;13.54;100.00
8641;BME280;4358;42.100;25.222;2023-04-25T03:14:50;99245.91;;;13.40;100.00
8641;BME280;4358;42.100;25.222;2023-04-25T03:17:17;99243.38;;;13.29;100.00
8641;BME280;4358;42.100;25.222;2023-04-25T03:19:43;99241.09;;;13.25;100.00
8641;BME280;4358;42.100;25.222;2023-04-25T03:22:12;99246.22;;;13.07;100.00
8641;BME280;4358;42.100;25.222;2023-04-25T03:24:38;99244.25;;;13.09;100.00
8641;BME280;4358;42.100;25.222;2023-04-25T03:27:05;99245.50;;;13.05;100.00
8641;BME280;4358;42.100;25.222;2023-04-25T03:29:32;99253.72;;;13.13;100.00
8641;BME280;4358;42.100;25.222;2023-04-25T03:31:59;99245.31;;;13.18;100.00
8641;BME280;4358;42.100;25.222;2023-04-25T03:34:26;99257.94;;;13.25;100.00
8641;BME280;4358;42.100;25.222;2023-04-25T03:36:53;99252.56;;;13.15;100.00
8641;BME280;4358;42.100;25.222;2023-04-25T03:39:21;99254.84;;;13.20;100.00
8641;BME280;4358;42.100;25.222;2023-04-25T03:41:48;99255.69;;;13.21;100.00
8641;BME280;4358;42.100;25.222;2023-04-25T03:44:15;99265.94;;;13.25;100.00
8641;BME280;4358;42.100;25.222;2023-04-25T03:46:42;99262.88;;;13.09;100.00
8641;BME280;4358;42.100;25.222;2023-04-25T03:49:08;99264.13;;;13.05;100.00
8641;BME280;4358;42.100;25.222;2023-04-25T03:51:35;99265.88;;;12.85;100.00
8641;BME280;4358;42.100;25.222;2023-04-25T03:54:02;99266.59;;;12.87;100.00
8641;BME280;4358;42.100;25.222;2023-04-25T03:56:31;99264.25;;;12.73;100.00
8641;BME280;4358;42.100;25.222;2023-04-25T03:58:58;99266.72;;;12.86;100.00
8641;BME280;4358;42.100;25.222;2023-04-25T04:01:24;99274.03;;;12.93;100.00
8641;BME280;4358;42.100;25.222;2023-04-25T04:03:51;99273.16;;;12.83;100.00
8641;BME280;4358;42.100;25.222;2023-04-25T04:06:18;99273.88;;;12.64;100.00
8641;BME280;4358;42.100;25.222;2023-04-25T04:08:46;99268.28;;;12.67;100.00
8641;BME280;4358;42.100;25.222;2023-04-25T04:11:13;99267.53;;;12.77;100.00
8641;BME280;4358;42.100;25.222;2023-04-25T04:13:41;99264.22;;;12.94;100.00
8641;BME280;4358;42.100;25.222;2023-04-25T04:16:08;99265.44;;;13.10;100.00
8641;BME280;4358;42.100;25.222;2023-04-25T04:18:35;99268.03;;;13.22;100.00
8641;BME280;4358;42.100;25.222;2023-04-25T04:21:02;99268.34;;;13.28;100.00
8641;BME280;4358;42.100;25.222;2023-04-25T04:23:29;99272.00;;;13.37;100.00
8641;BME280;4358;42.100;25.222;2023-04-25T04:25:56;99270.91;;;13.39;100.00
8641;BME280;4358;42.100;25.222;2023-04-25T04:28:23;99274.00;;;13.44;100.00
8641;BME280;4358;42.100;25.222;2023-04-25T04:30:52;99270.63;;;13.42;100.00
8641;BME280;4358;42.100;25.222;2023-04-25T04:33:18;99266.81;;;13.35;100.00
8641;BME280;4358;42.100;25.222;2023-04-25T04:35:46;99264.44;;;13.32;100.00
8641;BME280;4358;42.100;25.222;2023-04-25T04:38:13;99265.44;;;13.41;100.00
8641;BME280;4358;42.100;25.222;2023-04-25T04:40:41;99271.50;;;13.52;100.00
8641;BME280;4358;42.100;25.222;2023-04-25T04:43:08;99265.63;;;13.58;100.00
8641;BME280;4358;42.100;25.222;2023-04-25T04:45:35;99269.53;;;13.54;100.00
8641;BME280;4358;42.100;25.222;2023-04-25T04:48:05;99278.78;;;13.50;100.00
8641;BME280;4358;42.100;25.222;2023-04-25T04:50:32;99276.53;;;13.55;100.00
8641;BME280;4358;42.100;25.222;2023-04-25T04:52:59;99275.31;;;13.60;100.00
8641;BME280;4358;42.100;25.222;2023-04-25T04:55:26;99279.09;;;13.67;100.00
8641;BME280;4358;42.100;25.222;2023-04-25T04:57:53;99272.34;;;13.63;100.00
8641;BME280;4358;42.100;25.222;2023-04-25T05:00:20;99281.66;;;13.78;100.00
8641;BME280;4358;42.100;25.222;2023-04-25T05:02:47;99293.16;;;13.88;100.00
8641;BME280;4358;42.100;25.222;2023-04-25T05:05:15;99293.72;;;13.82;100.00
8641;BME280;4358;42.100;25.222;2023-04-25T05:07:42;99294.72;;;13.81;100.00
8641;BME280;4358;42.100;25.222;2023-04-25T05:10:10;99290.06;;;13.83;100.00
8641;BME280;4358;42.100;25.222;2023-04-25T05:12:37;99285.34;;;13.96;100.00
8641;BME280;4358;42.100;25.222;2023-04-25T05:15:04;99280.00;;;14.15;100.00
8641;BME280;4358;42.100;25.222;2023-04-25T05:17:31;99278.59;;;14.30;100.00
8641;BME280;4358;42.100;25.222;2023-04-25T05:19:58;99285.09;;;14.37;100.00
8641;BME280;4358;42.100;25.222;2023-04-25T05:22:26;99276.94;;;14.49;100.00
8641;BME280;4358;42.100;25.222;2023-04-25T05:24:53;99281.97;;;14.52;100.00
8641;BME280;4358;42.100;25.222;2023-04-25T05:27:20;99288.56;;;14.57;100.00
8641;BME280;4358;42.100;25.222;2023-04-25T05:29:47;99286.19;;;14.64;100.00
8641;BME280;4358;42.100;25.222;2023-04-25T05:32:13;99280.78;;;14.83;100.00
8641;BME280;4358;42.100;25.222;2023-04-25T05:34:40;99280.25;;;14.79;100.00
8641;BME280;4358;42.100;25.222;2023-04-25T05:37:07;99275.31;;;14.84;100.00
8641;BME280;4358;42.100;25.222;2023-04-25T05:39:35;99269.63;;;14.97;100.00
8641;BME280;4358;42.100;25.222;2023-04-25T05:42:02;99274.13;;;15.06;100.00
8641;BME280;4358;42.100;25.222;2023-04-25T05:44:30;99274.00;;;14.98;100.00
8641;BME280;4358;42.100;25.222;2023-04-25T05:46:57;99269.47;;;15.08;100.00
8641;BME280;4358;42.100;25.222;2023-04-25T05:49:23;99258.28;;;14.95;100.00
8641;BME280;4358;42.100;25.222;2023-04-25T05:51:50;99265.03;;;14.90;100.00
8641;BME280;4358;42.100;25.222;2023-04-25T05:54:17;99264.16;;;14.99;100.00
8641;BME280;4358;42.100;25.222;2023-04-25T05:56:45;99271.16;;;15.09;100.00
8641;BME280;4358;42.100;25.222;2023-04-25T05:59:12;99272.09;;;15.18;100.00
8641;BME280;4358;42.100;25.222;2023-04-25T06:01:39;99271.84;;;15.11;100.00
8641;BME280;4358;42.100;25.222;2023-04-25T06:04:05;99273.00;;;14.99;100.00
8641;BME280;4358;42.100;25.222;2023-04-25T06:06:32;99265.53;;;15.03;100.00
8641;BME280;4358;42.100;25.222;2023-04-25T06:08:59;99270.03;;;15.02;100.00
8641;BME280;4358;42.100;25.222;2023-04-25T06:11:26;99272.72;;;15.02;100.00
8641;BME280;4358;42.100;25.222;2023-04-25T06:13:55;99273.09;;;14.80;100.00
8641;BME280;4358;42.100;25.222;2023-04-25T06:16:21;99260.84;;;14.77;100.00
8641;BME280;4358;42.100;25.222;2023-04-25T06:18:50;99262.50;;;14.88;100.00
8641;BME280;4358;42.100;25.222;2023-04-25T06:21:16;99262.44;;;15.07;100.00
8641;BME280;4358;42.100;25.222;2023-04-25T06:23:43;99258.13;;;15.24;100.00
8641;BME280;4358;42.100;25.222;2023-04-25T06:26:10;99261.16;;;15.39;100.00
8641;BME280;4358;42.100;25.222;2023-04-25T06:28:37;99261.69;;;15.52;100.00
8641;BME280;4358;42.100;25.222;2023-04-25T06:31:05;99274.75;;;15.55;100.00
8641;BME280;4358;42.100;25.222;2023-04-25T06:33:32;99265.91;;;15.54;100.00
8641;BME280;4358;42.100;25.222;2023-04-25T06:36:01;99267.50;;;15.65;100.00
8641;BME280;4358;42.100;25.222;2023-04-25T06:38:28;99270.09;;;15.84;100.00
8641;BME280;4358;42.100;25.222;2023-04-25T06:40:55;99269.41;;;16.18;100.00
8641;BME280;4358;42.100;25.222;2023-04-25T06:43:23;99272.31;;;16.42;100.00
8641;BME280;4358;42.100;25.222;2023-04-25T06:45:50;99268.78;;;16.41;100.00
8641;BME280;4358;42.100;25.222;2023-04-25T06:48:19;99263.97;;;16.63;100.00
8641;BME280;4358;42.100;25.222;2023-04-25T06:50:45;99264.19;;;16.69;100.00
8641;BME280;4358;42.100;25.222;2023-04-25T06:53:12;99259.84;;;16.76;100.00
8641;BME280;4358;42.100;25.222;2023-04-25T06:55:39;99255.44;;;16.67;100.00
8641;BME280;4358;42.100;25.222;2023-04-25T06:58:06;99257.25;;;16.84;100.00
8641;BME280;4358;42.100;25.222;2023-04-25T07:00:33;99266.53;;;16.98;100.00
8641;BME280;4358;42.100;25.222;2023-04-25T07:03:00;99258.91;;;16.85;100.00
8641;BME280;4358;42.100;25.222;2023-04-25T07:05:28;99254.59;;;16.92;100.00
8641;BME280;4358;42.100;25.222;2023-04-25T07:07:55;99252.50;;;16.78;100.00
8641;BME280;4358;42.100;25.222;2023-04-25T07:10:22;99254.91;;;16.46;100.00
8641;BME280;4358;42.100;25.222;2023-04-25T07:12:50;99247.97;;;16.53;100.00
8641;BME280;4358;42.100;25.222;2023-04-25T07:15:17;99250.41;;;16.64;100.00
8641;BME280;4358;42.100;25.222;2023-04-25T07:17:44;99246.53;;;16.84;100.00
8641;BME280;4358;42.100;25.222;2023-04-25T07:20:11;99247.84;;;17.14;100.00
8641;BME280;4358;42.100;25.222;2023-04-25T07:22:39;99246.25;;;17.29;100.00
8641;BME280;4358;42.100;25.222;2023-04-25T07:25:06;99243.47;;;17.47;100.00
8641;BME280;4358;42.100;25.222;2023-04-25T07:27:34;99250.94;;;17.61;100.00
8641;BME280;4358;42.100;25.222;2023-04-25T07:30:00;99258.19;;;17.77;100.00
8641;BME280;4358;42.100;25.222;2023-04-25T07:32:27;99257.06;;;18.04;100.00
8641;BME280;4358;42.100;25.222;2023-04-25T07:34:54;99254.38;;;18.28;100.00
8641;BME280;4358;42.100;25.222;2023-04-25T07:37:21;99265.16;;;18.52;100.00
8641;BME280;4358;42.100;25.222;2023-04-25T07:39:49;99264.16;;;18.70;100.00
8641;BME280;4358;42.100;25.222;2023-04-25T07:42:16;99261.47;;;18.61;100.00
8641;BME280;4358;42.100;25.222;2023-04-25T07:44:43;99267.34;;;18.65;100.00
8641;BME280;4358;42.100;25.222;2023-04-25T07:47:10;99259.78;;;18.52;100.00
8641;BME280;4358;42.100;25.222;2023-04-25T07:49:37;99261.47;;;18.61;100.00
8641;BME280;4358;42.100;25.222;2023-04-25T07:52:04;99255.34;;;19.00;100.00
8641;BME280;4358;42.100;25.222;2023-04-25T07:54:31;99262.09;;;19.04;100.00
8641;BME280;4358;42.100;25.222;2023-04-25T07:57:00;99254.78;;;19.29;100.00
8641;BME280;4358;42.100;25.222;2023-04-25T07:59:27;99258.44;;;18.81;100.00
8641;BME280;4358;42.100;25.222;2023-04-25T08:01:54;99254.16;;;19.11;100.00
8641;BME280;4358;42.100;25.222;2023-04-25T08:04:22;99252.94;;;19.21;100.00
8641;BME280;4358;42.100;25.222;2023-04-25T08:06:49;99250.88;;;19.39;100.00
8641;BME280;4358;42.100;25.222;2023-04-25T08:09:16;99251.88;;;19.47;100.00
8641;BME280;4358;42.100;25.222;2023-04-25T08:11:43;99252.13;;;19.21;100.00
8641;BME280;4358;42.100;25.222;2023-04-25T08:14:11;99251.59;;;19.25;100.00
8641;BME280;4358;42.100;25.222;2023-04-25T08:16:38;99250.38;;;19.36;100.00
8641;BME280;4358;42.100;25.222;2023-04-25T08:19:05;99248.69;;;19.35;100.00
8641;BME280;4358;42.100;25.222;2023-04-25T08:21:32;99246.59;;;19.06;100.00
8641;BME280;4358;42.100;25.222;2023-04-25T08:23:59;99243.09;;;18.89;100.00
8641;BME280;4358;42.100;25.222;2023-04-25T08:26:26;99252.28;;;19.11;100.00
8641;BME280;4358;42.100;25.222;2023-04-25T08:28:53;99239.47;;;19.29;100.00
8641;BME280;4358;42.100;25.222;2023-04-25T08:31:21;99248.78;;;19.58;100.00
8641;BME280;4358;42.100;25.222;2023-04-25T08:33:47;99246.69;;;19.76;100.00
8641;BME280;4358;42.100;25.222;2023-04-25T08:36:16;99251.25;;;19.98;100.00
8641;BME280;4358;42.100;25.222;2023-04-25T08:38:44;99253.25;;;20.04;100.00
8641;BME280;4358;42.100;25.222;2023-04-25T08:41:11;99252.69;;;19.86;100.00
8641;BME280;4358;42.100;25.222;2023-04-25T08:43:42;99245.47;;;19.78;100.00
8641;BME280;4358;42.100;25.222;2023-04-25T08:46:09;99258.63;;;19.73;100.00
8641;BME280;4358;42.100;25.222;2023-04-25T08:48:40;99255.75;;;19.75;100.00
8641;BME280;4358;42.100;25.222;2023-04-25T08:51:09;99254.50;;;19.94;100.00
8641;BME280;4358;42.100;25.222;2023-04-25T08:53:37;99260.13;;;20.29;100.00
8641;BME280;4358;42.100;25.222;2023-04-25T08:56:08;99252.59;;;20.48;100.00
8641;BME280;4358;42.100;25.222;2023-04-25T08:58:38;99263.41;;;20.62;100.00
8641;BME280;4358;42.100;25.222;2023-04-25T09:01:05;99258.41;;;20.74;100.00
8641;BME280;4358;42.100;25.222;2023-04-25T09:03:32;99253.41;;;20.71;100.00
8641;BME280;4358;42.100;25.222;2023-04-25T09:06:01;99248.06;;;20.63;100.00
8641;BME280;4358;42.100;25.222;2023-04-25T09:08:28;99250.03;;;20.69;100.00
8641;BME280;4358;42.100;25.222;2023-04-25T09:10:55;99251.28;;;20.81;100.00
8641;BME280;4358;42.100;25.222;2023-04-25T09:13:25;99253.31;;;20.94;100.00
8641;BME280;4358;42.100;25.222;2023-04-25T09:15:53;99242.06;;;20.90;100.00
8641;BME280;4358;42.100;25.222;2023-04-25T09:18:24;99257.34;;;21.12;100.00
8641;BME280;4358;42.100;25.222;2023-04-25T09:20:53;99245.66;;;21.35;100.00
8641;BME280;4358;42.100;25.222;2023-04-25T09:23:22;99225.16;;;21.55;100.00
8641;BME280;4358;42.100;25.222;2023-04-25T09:25:50;99224.09;;;22.07;100.00
8641;BME280;4358;42.100;25.222;2023-04-25T09:28:23;99218.94;;;22.33;97.91
8641;BME280;4358;42.100;25.222;2023-04-25T09:30:54;99209.53;;;22.50;98.26
8641;BME280;4358;42.100;25.222;2023-04-25T09:33:27;99202.31;;;22.36;95.84
8641;BME280;4358;42.100;25.222;2023-04-25T09:36:01;99199.78;;;22.28;97.25
8641;BME280;4358;42.100;25.222;2023-04-25T09:38:31;99185.84;;;22.31;96.33
8641;BME280;4358;42.100;25.222;2023-04-25T09:40:58;99185.53;;;22.19;98.21
8641;BME280;4358;42.100;25.222;2023-04-25T09:43:26;99200.38;;;21.66;98.29
8641;BME280;4358;42.100;25.222;2023-04-25T09:45:54;99183.47;;;21.43;99.90
8641;BME280;4358;42.100;25.222;2023-04-25T09:48:26;99205.44;;;21.40;100.00
8641;BME280;4358;42.100;25.222;2023-04-25T09:51:07;99191.94;;;21.10;100.00
8641;BME280;4358;42.100;25.222;2023-04-25T09:53:36;99189.09;;;20.83;100.00
8641;BME280;4358;42.100;25.222;2023-04-25T09:56:04;99200.09;;;20.73;100.00
8641;BME280;4358;42.100;25.222;2023-04-25T09:58:32;99187.56;;;20.80;100.00
8641;BME280;4358;42.100;25.222;2023-04-25T10:01:01;99178.38;;;21.04;100.00
8641;BME280;4358;42.100;25.222;2023-04-25T10:03:30;99175.47;;;21.05;100.00
8641;BME280;4358;42.100;25.222;2023-04-25T10:05:59;99170.19;;;21.12;100.00
8641;BME280;4358;42.100;25.222;2023-04-25T10:08:30;99160.69;;;21.31;100.00
8641;BME280;4358;42.100;25.222;2023-04-25T10:11:01;99159.66;;;21.32;100.00
8641;BME280;4358;42.100;25.222;2023-04-25T10:13:29;99159.66;;;21.32;100.00
8641;BME280;4358;42.100;25.222;2023-04-25T10:15:57;99153.91;;;21.35;100.00
8641;BME280;4358;42.100;25.222;2023-04-25T10:18:25;99151.72;;;21.45;100.00
8641;BME280;4358;42.100;25.222;2023-04-25T10:20:53;99152.13;;;21.27;100.00
8641;BME280;4358;42.100;25.222;2023-04-25T10:23:20;99146.34;;;21.30;100.00
8641;BME280;4358;42.100;25.222;2023-04-25T10:25:48;99141.69;;;21.39;100.00
8641;BME280;4358;42.100;25.222;2023-04-25T10:28:17;99152.66;;;21.37;100.00
8641;BME280;4358;42.100;25.222;2023-04-25T10:30:59;99159.78;;;21.09;100.00
8641;BME280;4358;42.100;25.222;2023-04-25T10:33:32;99154.16;;;21.10;100.00
8641;BME280;4358;42.100;25.222;2023-04-25T10:36:12;99157.09;;;21.24;100.00
8641;BME280;4358;42.100;25.222;2023-04-25T10:38:39;99142.31;;;21.41;100.00
8641;BME280;4358;42.100;25.222;2023-04-25T10:41:08;99151.63;;;21.74;100.00
8641;BME280;4358;42.100;25.222;2023-04-25T10:43:37;99142.00;;;22.08;100.00
8641;BME280;4358;42.100;25.222;2023-04-25T10:46:18;99142.25;;;22.40;96.11
8641;BME280;4358;42.100;25.222;2023-04-25T10:48:47;99144.25;;;22.53;94.82
8641;BME280;4358;42.100;25.222;2023-04-25T10:51:20;99129.09;;;22.87;93.34
8641;BME280;4358;42.100;25.222;2023-04-25T10:53:56;99127.94;;;23.09;92.19
8641;BME280;4358;42.100;25.222;2023-04-25T10:56:26;99125.00;;;23.04;91.59
8641;BME280;4358;42.100;25.222;2023-04-25T10:59:08;99112.59;;;23.29;90.77
8641;BME280;4358;42.100;25.222;2023-04-25T11:01:37;99103.88;;;23.27;92.84
8641;BME280;4358;42.100;25.222;2023-04-25T11:04:04;99099.81;;;23.57;92.57
8641;BME280;4358;42.100;25.222;2023-04-25T11:06:41;99095.47;;;23.70;92.27
8641;BME280;4358;42.100;25.222;2023-04-25T11:09:11;99101.28;;;23.60;92.63
8641;BME280;4358;42.100;25.222;2023-04-25T11:11:39;99095.69;;;23.07;93.97
8641;BME280;4358;42.100;25.222;2023-04-25T11:14:07;99094.47;;;22.75;94.94
8641;BME280;4358;42.100;25.222;2023-04-25T11:16:34;99095.44;;;22.33;95.31
8641;BME280;4358;42.100;25.222;2023-04-25T11:19:01;99090.28;;;22.11;96.08
8641;BME280;4358;42.100;25.222;2023-04-25T11:21:29;99091.88;;;22.05;95.39
8641;BME280;4358;42.100;25.222;2023-04-25T11:23:57;99095.19;;;22.01;94.86
8641;BME280;4358;42.100;25.222;2023-04-25T11:26:24;99087.84;;;21.94;94.57
8641;BME280;4358;42.100;25.222;2023-04-25T11:28:57;99084.03;;;21.89;95.08
8641;BME280;4358;42.100;25.222;2023-04-25T11:31:26;99077.28;;;22.00;94.17
8641;BME280;4358;42.100;25.222;2023-04-25T11:33:53;99062.56;;;22.02;92.93
8641;BME280;4358;42.100;25.222;2023-04-25T11:36:20;99070.22;;;21.98;93.07
8641;BME280;4358;42.100;25.222;2023-04-25T11:38:47;99058.28;;;21.93;92.95
8641;BME280;4358;42.100;25.222;2023-04-25T11:41:13;99058.38;;;22.00;93.46
8641;BME280;4358;42.100;25.222;2023-04-25T11:43:43;99050.94;;;22.36;91.37
8641;BME280;4358;42.100;25.222;2023-04-25T11:46:10;99046.09;;;22.59;90.44
8641;BME280;4358;42.100;25.222;2023-04-25T11:48:39;99042.09;;;22.90;89.64
8641;BME280;4358;42.100;25.222;2023-04-25T11:51:06;99043.47;;;23.27;87.59
8641;BME280;4358;42.100;25.222;2023-04-25T11:53:34;99028.69;;;23.36;86.69
8641;BME280;4358;42.100;25.222;2023-04-25T11:56:01;99012.94;;;23.52;85.74
8641;BME280;4358;42.100;25.222;2023-04-25T11:58:28;99011.06;;;23.73;84.06
8641;BME280;4358;42.100;25.222;2023-04-25T12:00:56;98996.06;;;23.96;82.00
8641;BME280;4358;42.100;25.222;2023-04-25T12:03:24;98986.41;;;24.14;82.44
8641;BME280;4358;42.100;25.222;2023-04-25T12:06:03;98982.06;;;24.19;81.64
8641;BME280;4358;42.100;25.222;2023-04-25T12:08:30;98977.47;;;24.00;80.43
8641;BME280;4358;42.100;25.222;2023-04-25T12:10:58;98967.66;;;24.12;79.90
8641;BME280;4358;42.100;25.222;2023-04-25T12:13:25;98965.78;;;24.32;78.19
8641;BME280;4358;42.100;25.222;2023-04-25T12:15:54;98961.41;;;24.25;80.40
8641;BME280;4358;42.100;25.222;2023-04-25T12:18:23;98960.94;;;24.34;79.05
8641;BME280;4358;42.100;25.222;2023-04-25T12:20:52;98950.88;;;24.55;77.46
8641;BME280;4358;42.100;25.222;2023-04-25T12:23:26;98944.25;;;24.37;77.60
8641;BME280;4358;42.100;25.222;2023-04-25T12:25:53;98948.00;;;24.36;78.79
8641;BME280;4358;42.100;25.222;2023-04-25T12:28:22;98946.50;;;24.54;77.58
8641;BME280;4358;42.100;25.222;2023-04-25T12:30:57;98935.38;;;24.68;76.06
8641;BME280;4358;42.100;25.222;2023-04-25T12:33:25;98951.44;;;24.70;75.47
8641;BME280;4358;42.100;25.222;2023-04-25T12:35:52;98943.13;;;24.65;75.72
8641;BME280;4358;42.100;25.222;2023-04-25T12:38:23;98939.22;;;24.47;74.48
8641;BME280;4358;42.100;25.222;2023-04-25T12:40:52;98940.13;;;24.28;75.42
8641;BME280;4358;42.100;25.222;2023-04-25T12:43:18;98942.44;;;24.18;74.74
8641;BME280;4358;42.100;25.222;2023-04-25T12:45:47;98947.22;;;24.16;75.29
8641;BME280;4358;42.100;25.222;2023-04-25T12:48:15;98941.16;;;24.14;75.33
8641;BME280;4358;42.100;25.222;2023-04-25T12:50:42;98937.22;;;24.10;74.28
8641;BME280;4358;42.100;25.222;2023-04-25T12:53:10;98937.34;;;24.41;73.95
8641;BME280;4358;42.100;25.222;2023-04-25T12:55:37;98934.31;;;24.69;73.82
8641;BME280;4358;42.100;25.222;2023-04-25T12:58:05;98939.16;;;24.61;73.05
8641;BME280;4358;42.100;25.222;2023-04-25T13:00:33;98938.03;;;24.24;73.72
8641;BME280;4358;42.100;25.222;2023-04-25T13:03:00;98941.59;;;24.11;74.20
8641;BME280;4358;42.100;25.222;2023-04-25T13:05:27;98937.63;;;24.14;74.65